CheckWX is a tool to help pilots better visualize weather data.  It is not intended as a substitute for an official pre-flight weather briefing.

18:03:47 UTC

GOBD METAR
Blaise Diagne International Airport
Dakar, Senegal
Current

34 mins ago

GOBD 171730Z 36013KT 9000 NSC 25/11 Q1011 NOSIG
Observed
Feb-17 @ 17:30 UTC
Wind
  • 360° at 13 KTS
Visibility
8,996 meters
Flight Rules
VFR
Cloud Levels
  • Clear skies
Temperature
25°C / 77°F
Dewpoint
11°C / 52°F
Humidity
42%
Altimeter
29.85" Hg
Pressure
1010.92 hPa
Previous

1 hour ago

GOBD 171700Z 36013KT 9000 NSC 24/13 Q1011 NOSIG
Observed
Feb-17 @ 17:00 UTC
Wind
  • 360° at 13 KTS
Visibility
8,996 meters
Flight Rules
VFR
Cloud Levels
  • Clear skies
Temperature
24°C / 75°F
Dewpoint
13°C / 55°F
Humidity
50%
Altimeter
29.85" Hg
Pressure
1010.92 hPa
Previous

2 hours ago

GOBD 171630Z 35014KT 9000 NSC 25/12 Q1012 NOSIG
Observed
Feb-17 @ 16:30 UTC
Wind
  • 350° at 14 KTS
Visibility
8,996 meters
Flight Rules
VFR
Cloud Levels
  • Clear skies
Temperature
25°C / 77°F
Dewpoint
12°C / 54°F
Humidity
44%
Altimeter
29.88" Hg
Pressure
1011.92 hPa